Revelstoke Mountain Resort Subpeak Weather Data


Time
Avg. Air Temp
Dew Point
Avg. Rel Humidity
Avg. 2 Min Wind Speed
Max Gust Velocity
MGV Time
MGV Direction
Avg. Spot Wind Velocity
2014-04-09 03:00:00-7° C-9° C90%15 km/h29 km/h2014-04-09 02:19:10NW17 km/h
2014-04-09 02:00:00-6° C-8° C91%8 km/h36 km/h2014-04-09 01:19:10NW16 km/h
2014-04-09 01:00:00-5° C-7° C92%16 km/h35 km/h2014-04-09 00:14:10W21 km/h
2014-04-09 00:00:00-5° C-6° C92%19 km/h51 km/h2014-04-08 23:20:10SW31 km/h
2014-04-08 23:00:00-5° C-6° C92%32 km/h51 km/h2014-04-08 22:04:10SW36 km/h
2014-04-08 22:00:00-4° C-6° C80%44 km/h80 km/h2014-04-08 21:02:10W53 km/h
2014-04-08 21:00:00-2° C-8° C51%56 km/h98 km/h2014-04-08 20:55:10SW52 km/h
2014-04-08 20:00:00-1° C-10° C51%47 km/h70 km/h2014-04-08 19:22:10S50 km/h
2014-04-08 19:00:00-0° C-9° C53%44 km/h85 km/h2014-04-08 18:36:10SW51 km/h
2014-04-08 18:00:000° C-9° C53%50 km/h85 km/h2014-04-08 17:45:10SW56 km/h
2014-04-08 17:00:000° C-8° C58%58 km/h70 km/h2014-04-08 16:48:10SW51 km/h
2014-04-08 16:00:000° C-7° C60%59 km/h87 km/h2014-04-08 15:46:10SW55 km/h
2014-04-08 15:00:000° C-7° C61%50 km/h67 km/h2014-04-08 14:04:10SW45 km/h
2014-04-08 14:00:00-1° C-4° C73%33 km/h49 km/h2014-04-08 13:22:10SW35 km/h
2014-04-08 13:00:00-1° C-5° C73%36 km/h49 km/h2014-04-08 12:53:10S36 km/h
2014-04-08 12:00:00-1° C-6° C72%35 km/h47 km/h2014-04-08 11:38:10SW36 km/h
2014-04-08 11:00:00-1° C-6° C72%30 km/h44 km/h2014-04-08 10:40:10S34 km/h
2014-04-08 10:00:00-1° C-6° C73%33 km/h46 km/h2014-04-08 09:18:10S32 km/h
2014-04-08 09:00:00-1° C-5° C74%33 km/h42 km/h2014-04-08 08:09:10S32 km/h
2014-04-08 08:00:00-1° C-6° C72%34 km/h48 km/h2014-04-08 07:27:10S35 km/h
2014-04-08 07:00:00-2° C-6° C74%34 km/h52 km/h2014-04-08 06:25:10S42 km/h
2014-04-08 06:00:00-2° C-6° C75%38 km/h60 km/h2014-04-08 05:18:10S45 km/h
2014-04-08 05:00:00-2° C-6° C74%47 km/h54 km/h2014-04-08 04:20:10S43 km/h
2014-04-08 04:00:00-2° C-6° C73%48 km/h57 km/h2014-04-08 03:33:10SW47 km/h